Time;durP1;ratioP1;P1;durP2;ratioP2;P2;SDS_P1;SDS_P2;PMS_P1;PMS_P2;Temp;Humidity;BMP_temperature;BMP_pressure;BME280_temperature;BME280_humidity;BME280_pressure;Samples;Min_cycle;Max_cycle;Signal;HPM_P1;HPM_P2
2022/04/08 00:01:52;;;;;;;8.00;1.40;;;9.20;99.90;;;;;;5061554;28;20760;-51
2022/04/08 00:04:17;;;;;;;7.35;1.58;;;9.20;99.90;;;;;;5043545;28;20389;-50
2022/04/08 00:06:43;;;;;;;5.77;1.27;;;9.20;99.90;;;;;;5059899;28;20770;-51
2022/04/08 00:09:09;;;;;;;8.05;1.20;;;9.20;99.90;;;;;;5061448;28;21161;-51
2022/04/08 00:11:34;;;;;;;9.10;1.50;;;9.10;99.90;;;;;;5046031;28;20893;-51
2022/04/08 00:14:00;;;;;;;7.20;1.30;;;9.20;99.90;;;;;;5062161;28;20384;-51
2022/04/08 00:16:27;;;;;;;8.85;0.90;;;9.20;99.90;;;;;;5062418;28;20384;-51
2022/04/08 00:18:53;;;;;;;6.30;1.40;;;9.20;99.90;;;;;;5060855;28;20519;-50
2022/04/08 00:21:18;;;;;;;7.03;1.10;;;9.20;99.90;;;;;;5080529;28;20453;-51
2022/04/08 00:23:45;;;;;;;5.17;0.90;;;9.10;99.90;;;;;;5063523;28;20427;-51
2022/04/08 00:26:11;;;;;;;6.45;1.10;;;9.20;99.90;;;;;;5083888;28;20394;-51
2022/04/08 00:28:37;;;;;;;6.50;0.98;;;9.10;99.90;;;;;;5081513;28;20788;-51
2022/04/08 00:31:04;;;;;;;4.80;0.90;;;9.10;99.90;;;;;;5079979;28;20714;-51
2022/04/08 00:33:33;;;;;;;6.95;1.00;;;9.10;99.90;;;;;;5081899;28;20871;-51
2022/04/08 00:35:59;;;;;;;7.50;1.42;;;9.10;99.90;;;;;;5081575;28;20382;-51
2022/04/08 00:38:25;;;;;;;7.22;1.15;;;9.10;99.90;;;;;;5082144;28;20743;-51
2022/04/08 00:40:50;;;;;;;6.85;1.20;;;9.10;99.90;;;;;;5080540;28;20424;-50
2022/04/08 00:43:18;;;;;;;7.30;2.00;;;9.10;99.90;;;;;;5080468;28;20764;-51
2022/04/08 00:45:44;;;;;;;5.65;1.50;;;9.20;99.90;;;;;;5080245;28;20425;-50
2022/04/08 00:48:10;;;;;;;5.65;1.15;;;9.10;99.90;;;;;;5080232;28;20455;-51
2022/04/08 00:50:43;;;;;;;7.57;1.20;;;9.10;99.90;;;;;;5080925;28;20860;-51
2022/04/08 00:53:09;;;;;;;6.07;1.45;;;9.00;99.90;;;;;;5062419;28;20396;-51
2022/04/08 00:55:37;;;;;;;5.75;2.00;;;9.10;99.90;;;;;;5082172;28;20482;-51
2022/04/08 00:58:03;;;;;;;9.95;1.40;;;9.00;99.90;;;;;;5079113;28;20378;-50
2022/04/08 01:00:37;;;;;;;5.30;1.50;;;9.00;99.90;;;;;;5079655;28;20421;-51
2022/04/08 01:03:04;;;;;;;9.95;1.35;;;9.00;99.90;;;;;;5081144;28;20428;-51
2022/04/08 01:05:31;;;;;;;6.72;1.70;;;9.10;99.90;;;;;;5080301;28;20419;-50
2022/04/08 01:07:57;;;;;;;11.60;1.40;;;9.10;99.90;;;;;;5080501;28;20385;-50
2022/04/08 01:10:23;;;;;;;8.90;1.30;;;9.00;99.90;;;;;;5081287;28;20378;-50
2022/04/08 01:12:52;;;;;;;5.60;1.10;;;9.10;99.90;;;;;;5080100;28;20398;-51
2022/04/08 01:15:19;;;;;;;10.25;1.40;;;9.10;99.90;;;;;;5078378;28;20383;-51
2022/04/08 01:17:45;;;;;;;9.38;1.90;;;9.00;99.90;;;;;;5081230;28;20404;-51
2022/04/08 01:20:11;;;;;;;6.72;1.20;;;9.00;99.90;;;;;;5061790;28;20922;-50
2022/04/08 01:22:37;;;;;;;5.95;1.05;;;9.00;99.90;;;;;;5082111;28;20406;-51
2022/04/08 01:25:07;;;;;;;5.70;1.10;;;9.00;99.90;;;;;;5078917;28;20413;-51
2022/04/08 01:27:35;;;;;;;8.32;1.30;;;9.10;99.90;;;;;;5079600;28;20384;-51
2022/04/08 01:30:01;;;;;;;6.72;1.17;;;9.00;99.90;;;;;;5078211;28;20391;-50
2022/04/08 01:32:27;;;;;;;5.53;1.00;;;8.90;99.90;;;;;;5066428;28;20429;-51
2022/04/08 01:34:53;;;;;;;6.40;1.30;;;8.90;99.90;;;;;;5080455;28;20821;-51
2022/04/08 01:37:19;;;;;;;6.18;1.17;;;9.00;99.90;;;;;;5082635;28;20393;-51
2022/04/08 01:39:45;;;;;;;6.25;1.20;;;9.00;99.90;;;;;;5081676;28;20395;-51
2022/04/08 01:42:11;;;;;;;9.60;1.40;;;8.90;99.90;;;;;;5079694;28;20879;-51
2022/04/08 01:44:37;;;;;;;16.67;1.50;;;8.80;99.90;;;;;;5079477;28;20428;-51
2022/04/08 01:47:04;;;;;;;6.20;1.50;;;8.80;99.90;;;;;;5068414;28;20444;-51
2022/04/08 01:49:29;;;;;;;7.50;1.10;;;8.80;99.90;;;;;;5083778;28;20402;-51
2022/04/08 01:51:55;;;;;;;5.10;1.40;;;8.90;99.90;;;;;;5080240;28;20949;-51
2022/04/08 01:54:21;;;;;;;8.80;1.30;;;8.80;99.90;;;;;;5079838;28;20397;-51
2022/04/08 01:56:47;;;;;;;7.60;1.30;;;8.70;99.90;;;;;;5080767;28;20938;-50
2022/04/08 01:59:13;;;;;;;8.40;1.30;;;8.70;99.90;;;;;;5077840;28;20398;-50
2022/04/08 02:01:39;;;;;;;5.88;1.50;;;8.60;99.90;;;;;;5079194;28;20410;-50
2022/04/08 02:04:04;;;;;;;7.33;2.10;;;8.50;99.90;;;;;;5079572;28;20403;-51
2022/04/08 02:06:35;;;;;;;7.40;1.30;;;8.60;99.90;;;;;;5077905;28;20422;-51
2022/04/08 02:09:01;;;;;;;8.80;1.80;;;8.60;99.90;;;;;;5078530;28;20421;-51
2022/04/08 02:11:26;;;;;;;10.82;1.88;;;8.70;99.90;;;;;;5080089;28;20743;-50
2022/04/08 02:13:52;;;;;;;7.82;1.40;;;8.70;99.90;;;;;;5069974;28;20394;-50
2022/04/08 02:16:18;;;;;;;7.13;1.30;;;8.70;99.90;;;;;;5078538;28;21089;-50
2022/04/08 02:18:43;;;;;;;6.82;1.50;;;8.70;99.90;;;;;;5080448;28;20395;-51
2022/04/08 02:21:10;;;;;;;9.50;1.20;;;8.70;99.90;;;;;;5062019;28;20507;-51
2022/04/08 02:23:36;;;;;;;6.23;2.20;;;8.70;99.90;;;;;;5059713;28;20400;-50
2022/04/08 02:26:05;;;;;;;6.28;1.30;;;8.70;99.90;;;;;;5058305;28;20386;-51
2022/04/08 02:28:33;;;;;;;5.70;1.50;;;8.70;99.90;;;;;;5057072;28;20746;-50
2022/04/08 02:30:59;;;;;;;8.32;1.50;;;8.70;99.90;;;;;;5058103;28;20392;-50
2022/04/08 02:33:25;;;;;;;10.00;1.40;;;8.70;99.90;;;;;;5059926;28;20394;-51
2022/04/08 02:35:50;;;;;;;7.55;1.50;;;8.60;99.90;;;;;;5060079;28;20397;-50
2022/04/08 02:38:16;;;;;;;6.50;1.20;;;8.50;99.90;;;;;;5059008;28;20387;-50
2022/04/08 02:40:42;;;;;;;6.78;1.20;;;8.50;99.90;;;;;;5059256;28;20559;-51
2022/04/08 02:43:08;;;;;;;5.05;1.10;;;8.50;99.90;;;;;;5057160;28;20422;-51
2022/04/08 02:45:33;;;;;;;6.37;1.20;;;8.40;99.90;;;;;;5060006;28;20433;-50
2022/04/08 02:47:59;;;;;;;9.48;1.30;;;8.40;99.90;;;;;;5058670;28;20389;-51
2022/04/08 02:50:25;;;;;;;6.57;1.30;;;8.30;99.90;;;;;;5057364;28;20395;-51
2022/04/08 02:52:50;;;;;;;5.40;1.20;;;8.30;99.90;;;;;;5060579;28;20476;-50
2022/04/08 02:55:16;;;;;;;6.28;1.48;;;8.30;99.90;;;;;;5057730;28;20395;-50
2022/04/08 02:57:46;;;;;;;6.57;1.50;;;8.30;99.90;;;;;;5059195;28;20395;-51
2022/04/08 03:00:16;;;;;;;6.10;1.05;;;10.10;99.90;;;;;;5056798;28;20480;-51
2022/04/08 03:02:43;;;;;;;6.63;1.30;;;8.20;99.90;;;;;;5058387;28;20404;-51
2022/04/08 03:05:09;;;;;;;11.03;1.80;;;8.20;99.90;;;;;;5058982;28;20396;-51
2022/04/08 03:07:35;;;;;;;10.20;1.40;;;8.20;99.90;;;;;;5058642;28;20475;-51
2022/04/08 03:10:03;;;;;;;7.28;1.40;;;8.20;99.90;;;;;;5058983;28;20861;-51
2022/04/08 03:12:29;;;;;;;8.15;1.52;;;8.20;99.90;;;;;;5059646;28;20440;-50
2022/04/08 03:14:54;;;;;;;8.82;1.60;;;8.20;99.90;;;;;;5058208;28;20424;-51
2022/04/08 03:17:20;;;;;;;11.25;1.80;;;8.10;99.90;;;;;;5058099;28;20468;-51
2022/04/08 03:19:46;;;;;;;6.83;1.73;;;8.10;99.90;;;;;;5060175;28;20898;-50
2022/04/08 03:22:11;;;;;;;6.45;1.05;;;8.10;99.90;;;;;;5056842;28;20428;-51
2022/04/08 03:24:37;;;;;;;8.07;2.20;;;8.10;99.90;;;;;;5058009;28;20751;-51
2022/04/08 03:27:03;;;;;;;7.95;1.40;;;8.00;99.90;;;;;;5057404;28;20390;-51
2022/04/08 03:29:29;;;;;;;10.88;1.48;;;8.10;99.90;;;;;;5055711;28;20397;-50
2022/04/08 03:31:54;;;;;;;9.10;1.33;;;8.10;99.90;;;;;;5058507;28;20763;-50
2022/04/08 03:34:20;;;;;;;7.35;1.20;;;8.10;99.90;;;;;;5058301;28;20950;-51
2022/04/08 03:36:47;;;;;;;5.70;1.30;;;8.10;99.90;;;;;;5061328;28;20382;-51
2022/04/08 03:39:13;;;;;;;8.07;1.50;;;8.10;99.90;;;;;;5056801;28;20413;-51
2022/04/08 03:41:40;;;;;;;9.13;1.80;;;8.10;99.90;;;;;;5061512;28;20936;-50
2022/04/08 03:44:06;;;;;;;8.20;1.20;;;8.20;99.90;;;;;;5061111;28;20396;-50
2022/04/08 03:46:31;;;;;;;6.20;1.42;;;8.10;99.90;;;;;;5063147;28;20380;-50
2022/04/08 03:48:57;;;;;;;5.90;1.40;;;8.10;99.90;;;;;;5062610;28;20388;-50
2022/04/08 03:51:23;;;;;;;6.93;1.30;;;8.10;99.90;;;;;;5061678;28;20508;-50
2022/04/08 03:53:48;;;;;;;6.90;1.17;;;8.10;99.90;;;;;;5063271;28;20953;-50
2022/04/08 03:56:14;;;;;;;9.75;1.45;;;8.10;99.90;;;;;;5060007;28;20460;-51
2022/04/08 03:58:40;;;;;;;8.15;1.50;;;8.10;99.90;;;;;;5061874;28;20437;-51
2022/04/08 04:01:06;;;;;;;6.30;1.13;;;8.10;99.90;;;;;;5059682;28;22070;-51
2022/04/08 04:03:31;;;;;;;8.55;1.80;;;8.00;99.90;;;;;;5061600;28;20504;-50
2022/04/08 04:05:58;;;;;;;7.97;1.80;;;8.00;99.90;;;;;;5063041;28;20392;-50
2022/04/08 04:08:24;;;;;;;6.30;1.20;;;8.00;99.90;;;;;;5062448;28;20380;-51
2022/04/08 04:10:49;;;;;;;7.90;1.20;;;8.00;99.90;;;;;;5063303;28;20440;-50
2022/04/08 04:13:15;;;;;;;8.20;1.10;;;8.10;99.90;;;;;;5064735;28;20474;-51
2022/04/08 04:15:41;;;;;;;7.43;1.10;;;8.10;99.90;;;;;;5061500;28;20395;-50
2022/04/08 04:18:08;;;;;;;6.85;1.00;;;7.90;99.90;;;;;;5060972;28;20498;-51
2022/04/08 04:20:34;;;;;;;8.65;1.80;;;7.90;99.90;;;;;;5061969;28;20399;-51
2022/04/08 04:23:00;;;;;;;8.00;1.00;;;7.90;99.90;;;;;;5061117;28;20770;-51
2022/04/08 04:25:26;;;;;;;8.32;1.20;;;6.80;99.90;;;;;;5064280;28;20387;-50
2022/04/08 04:27:52;;;;;;;10.75;1.45;;;7.90;99.90;;;;;;5064133;28;20865;-50
2022/04/08 04:30:18;;;;;;;13.40;1.30;;;7.80;99.90;;;;;;5059375;28;20469;-50
2022/04/08 04:32:43;;;;;;;6.55;1.27;;;7.90;99.90;;;;;;5058503;28;20403;-50
2022/04/08 04:35:09;;;;;;;10.60;1.60;;;7.90;99.90;;;;;;5059448;28;20442;-53
2022/04/08 04:37:36;;;;;;;8.83;1.40;;;7.90;99.90;;;;;;5061892;28;20391;-50
2022/04/08 04:40:03;;;;;;;7.38;1.60;;;7.90;99.90;;;;;;5060566;28;20431;-50
2022/04/08 04:42:29;;;;;;;9.05;1.33;;;7.90;99.90;;;;;;5060273;28;20459;-50
2022/04/08 04:44:55;;;;;;;7.90;1.30;;;8.00;99.90;;;;;;5059875;28;20385;-51
2022/04/08 04:47:21;;;;;;;6.97;1.20;;;8.00;99.90;;;;;;5042461;28;20392;-50
2022/04/08 04:49:47;;;;;;;10.73;1.87;;;8.00;99.90;;;;;;5060521;28;20391;-51
2022/04/08 04:52:12;;;;;;;7.30;1.23;;;8.10;99.90;;;;;;5060238;28;20397;-51
2022/04/08 04:54:38;;;;;;;8.07;1.88;;;8.00;99.90;;;;;;5061787;28;20380;-50
2022/04/08 04:57:04;;;;;;;11.20;2.10;;;8.10;99.90;;;;;;5061658;28;20398;-50
2022/04/08 04:59:30;;;;;;;8.70;1.30;;;8.10;99.90;;;;;;5061920;28;20522;-50
2022/04/08 05:01:56;;;;;;;11.48;1.60;;;8.10;99.90;;;;;;5065139;28;20872;-51
2022/04/08 05:04:21;;;;;;;7.43;1.10;;;8.00;99.90;;;;;;5060314;28;20517;-51
2022/04/08 05:06:47;;;;;;;8.55;1.45;;;8.00;99.90;;;;;;5060293;28;20507;-51
2022/04/08 05:09:12;;;;;;;8.05;1.60;;;8.20;99.90;;;;;;5060760;28;20376;-51
2022/04/08 05:11:38;;;;;;;7.30;1.50;;;8.30;99.90;;;;;;5059047;28;20750;-51
2022/04/08 05:14:04;;;;;;;6.95;1.50;;;8.40;99.90;;;;;;5059911;28;20945;-51
2022/04/08 05:16:30;;;;;;;7.80;1.40;;;8.50;99.90;;;;;;5062105;28;20421;-51
2022/04/08 05:18:56;;;;;;;9.63;1.67;;;8.50;99.90;;;;;;5061045;28;20396;-51
2022/04/08 05:21:22;;;;;;;9.95;1.80;;;8.50;99.90;;;;;;5057945;28;20879;-51
2022/04/08 05:23:48;;;;;;;9.25;1.52;;;8.70;99.90;;;;;;5060910;28;20919;-51
2022/04/08 05:26:15;;;;;;;8.43;1.60;;;8.70;99.90;;;;;;5060018;28;20403;-51
2022/04/08 05:28:40;;;;;;;8.80;1.90;;;8.70;99.90;;;;;;5041600;28;20762;-51
2022/04/08 05:31:06;;;;;;;9.20;1.58;;;8.70;99.90;;;;;;5060999;28;20476;-52
2022/04/08 05:33:32;;;;;;;7.82;1.48;;;8.70;99.90;;;;;;5059686;28;20501;-51
2022/04/08 05:35:57;;;;;;;9.37;1.70;;;8.40;99.90;;;;;;5061129;28;20759;-51
2022/04/08 05:38:23;;;;;;;7.90;1.52;;;8.40;99.90;;;;;;5059428;28;20877;-51
2022/04/08 05:40:49;;;;;;;8.23;1.40;;;8.40;99.90;;;;;;5060405;28;20569;-51
2022/04/08 05:43:16;;;;;;;10.27;1.70;;;8.40;99.90;;;;;;5060270;28;20384;-51
2022/04/08 05:45:41;;;;;;;7.53;1.50;;;8.50;99.90;;;;;;5059189;28;20388;-51
2022/04/08 05:48:07;;;;;;;7.73;1.60;;;8.50;99.90;;;;;;5059363;28;20439;-51
2022/04/08 05:50:34;;;;;;;6.28;1.58;;;8.50;99.90;;;;;;5058952;28;20468;-52
2022/04/08 05:53:00;;;;;;;7.75;1.73;;;8.60;99.90;;;;;;5066422;28;20413;-50
2022/04/08 05:55:25;;;;;;;5.85;1.20;;;8.60;99.90;;;;;;5058050;28;20439;-51
2022/04/08 05:57:56;;;;;;;7.03;1.63;;;8.60;99.90;;;;;;5069773;28;20403;-51
2022/04/08 06:00:22;;;;;;;7.45;1.50;;;8.50;99.90;;;;;;5049662;28;20877;-51
2022/04/08 06:02:48;;;;;;;6.27;1.47;;;8.40;99.90;;;;;;5049159;28;20953;-51
2022/04/08 06:05:18;;;;;;;12.02;2.42;;;8.40;99.90;;;;;;5060239;28;20499;-51
2022/04/08 06:07:55;;;;;;;8.57;1.60;;;8.60;99.90;;;;;;5058768;28;20416;-51
2022/04/08 06:10:23;;;;;;;9.63;1.70;;;8.60;99.90;;;;;;5061629;28;20918;-51
2022/04/08 06:12:52;;;;;;;8.83;1.50;;;8.70;99.90;;;;;;5069440;28;20403;-50
2022/04/08 06:15:19;;;;;;;8.83;1.40;;;8.70;99.90;;;;;;5067199;28;20384;-51
2022/04/08 06:17:45;;;;;;;6.40;1.20;;;8.80;99.90;;;;;;5068190;28;20873;-51
2022/04/08 06:20:13;;;;;;;5.55;1.40;;;8.90;99.90;;;;;;5068016;28;20443;-50
2022/04/08 06:22:41;;;;;;;7.05;1.52;;;8.70;99.90;;;;;;5060196;28;20419;-50
2022/04/08 06:25:17;;;;;;;6.88;1.55;;;8.70;99.90;;;;;;5063576;28;20859;-50
2022/04/08 06:27:46;;;;;;;5.82;1.15;;;8.80;99.90;;;;;;5060019;28;20387;-50
2022/04/08 06:30:14;;;;;;;7.30;1.50;;;11.10;99.90;;;;;;5058416;28;20975;-50
2022/04/08 06:32:43;;;;;;;5.68;1.10;;;8.90;99.90;;;;;;5058931;28;20441;-50
2022/04/08 06:35:09;;;;;;;5.63;1.00;;;8.80;99.90;;;;;;5052686;28;20850;-50
2022/04/08 06:37:34;;;;;;;5.82;0.90;;;8.80;99.90;;;;;;5065096;28;20403;-50
2022/04/08 06:40:10;;;;;;;7.50;1.20;;;8.80;99.90;;;;;;5060339;28;20437;-50
2022/04/08 06:42:38;;;;;;;5.00;1.00;;;8.60;99.90;;;;;;5059642;28;20418;-50
2022/04/08 06:45:04;;;;;;;7.20;1.17;;;8.60;99.90;;;;;;5052105;28;20431;-51
2022/04/08 06:47:30;;;;;;;7.00;1.10;;;8.60;99.90;;;;;;5049151;28;20443;-52
2022/04/08 06:49:57;;;;;;;4.57;1.13;;;8.80;99.90;;;;;;5049511;28;20716;-51
2022/04/08 06:52:22;;;;;;;7.20;1.20;;;8.90;99.90;;;;;;5049308;28;20409;-50
2022/04/08 06:54:48;;;;;;;5.78;1.40;;;8.80;99.90;;;;;;5064528;28;20392;-50
2022/04/08 06:57:14;;;;;;;8.53;1.33;;;8.80;99.90;;;;;;5066965;28;20757;-59
2022/04/08 06:59:41;;;;;;;7.07;1.67;;;8.80;99.90;;;;;;5060896;28;20738;-52
2022/04/08 07:02:07;;;;;;;7.28;1.40;;;8.80;99.90;;;;;;5038599;28;20419;-51
2022/04/08 07:04:33;;;;;;;7.22;1.40;;;8.80;99.90;;;;;;5059051;28;20407;-52
2022/04/08 07:06:59;;;;;;;7.40;1.40;;;8.90;99.90;;;;;;5060059;28;20852;-52
2022/04/08 07:09:25;;;;;;;8.47;1.00;;;8.80;99.90;;;;;;5058330;28;20380;-52
2022/04/08 07:11:50;;;;;;;7.10;1.30;;;8.70;99.90;;;;;;5059947;28;20386;-52
2022/04/08 07:14:16;;;;;;;5.77;1.00;;;8.60;99.90;;;;;;5063010;28;20474;-52
2022/04/08 07:16:43;;;;;;;6.43;1.00;;;8.60;99.90;;;;;;5065678;28;20865;-51
2022/04/08 07:19:13;;;;;;;7.20;1.20;;;8.50;99.90;;;;;;5064300;28;20390;-51
2022/04/08 07:21:39;;;;;;;8.97;1.50;;;8.40;99.90;;;;;;5083307;28;20946;-51
2022/04/08 07:24:05;;;;;;;9.30;1.00;;;8.20;99.90;;;;;;5080701;28;20480;-50
2022/04/08 07:26:31;;;;;;;8.57;1.90;;;8.20;99.90;;;;;;5088402;28;20416;-51
2022/04/08 07:28:56;;;;;;;6.77;1.23;;;8.20;99.90;;;;;;5085593;28;20734;-51
2022/04/08 07:31:22;;;;;;;5.25;1.15;;;8.20;99.90;;;;;;5083076;28;20446;-51
2022/04/08 07:33:48;;;;;;;6.00;1.30;;;8.10;99.90;;;;;;5087563;28;20477;-51
2022/04/08 07:36:14;;;;;;;5.50;1.10;;;8.10;99.90;;;;;;5072911;28;20398;-51
2022/04/08 07:38:40;;;;;;;6.97;1.15;;;7.80;99.90;;;;;;5088983;28;20917;-51
2022/04/08 07:41:05;;;;;;;5.40;1.00;;;7.80;99.90;;;;;;5089890;28;20382;-54
2022/04/08 07:43:31;;;;;;;4.45;0.80;;;7.70;99.90;;;;;;5076796;28;20893;-51
2022/04/08 07:45:57;;;;;;;5.65;1.05;;;7.70;99.90;;;;;;5083107;28;20473;-51
2022/04/08 07:48:22;;;;;;;5.27;1.00;;;7.60;99.90;;;;;;5090251;28;20739;-51
2022/04/08 07:50:48;;;;;;;4.03;0.70;;;7.50;99.90;;;;;;5087585;28;20550;-51
2022/04/08 07:53:15;;;;;;;4.70;0.80;;;7.30;99.90;;;;;;5074315;28;20409;-51
2022/04/08 07:55:41;;;;;;;4.50;0.60;;;7.30;99.90;;;;;;5084063;28;20406;-51
2022/04/08 07:58:07;;;;;;;4.60;1.10;;;7.40;99.90;;;;;;5086928;28;20466;-51
2022/04/08 08:00:33;;;;;;;7.20;1.05;;;7.40;99.90;;;;;;5078234;28;20403;-51
2022/04/08 08:03:00;;;;;;;7.63;1.25;;;7.70;99.90;;;;;;5088240;28;20449;-51
2022/04/08 08:05:27;;;;;;;5.70;1.10;;;8.00;99.90;;;;;;5087411;28;20469;-51
2022/04/08 08:07:55;;;;;;;5.10;1.00;;;7.80;99.90;;;;;;5078689;28;20412;-51
2022/04/08 08:10:30;;;;;;;5.50;0.80;;;7.80;99.90;;;;;;5090370;28;20394;-51
2022/04/08 08:12:57;;;;;;;6.57;1.23;;;7.80;99.90;;;;;;5090573;28;20842;-51
2022/04/08 08:15:24;;;;;;;5.80;1.23;;;8.00;99.90;;;;;;5081737;28;20744;-51
2022/04/08 08:17:51;;;;;;;5.50;0.90;;;7.90;99.90;;;;;;5089715;28;20393;-51
2022/04/08 08:20:19;;;;;;;4.97;1.08;;;7.90;99.90;;;;;;5070577;28;20403;-51
2022/04/08 08:22:45;;;;;;;5.72;0.95;;;8.20;99.90;;;;;;5074226;28;20426;-51
2022/04/08 08:25:12;;;;;;;6.13;1.20;;;8.50;99.90;;;;;;5090974;28;20470;-51
2022/04/08 08:27:43;;;;;;;5.30;0.80;;;8.50;99.90;;;;;;5089281;28;20370;-51
2022/04/08 08:30:11;;;;;;;6.88;1.10;;;8.60;99.90;;;;;;5071195;28;20387;-51
2022/04/08 08:32:38;;;;;;;4.90;1.10;;;8.80;99.90;;;;;;5054704;28;20895;-51
2022/04/08 08:35:07;;;;;;;4.38;0.85;;;8.70;99.90;;;;;;5071747;28;20383;-51
2022/04/08 08:37:33;;;;;;;6.05;1.30;;;8.70;99.90;;;;;;5072474;28;20387;-51
2022/04/08 08:39:59;;;;;;;4.55;1.02;;;8.70;99.90;;;;;;5092021;28;20366;-52
2022/04/08 08:42:25;;;;;;;5.20;1.20;;;8.80;99.90;;;;;;5087752;28;20467;-51
2022/04/08 08:44:51;;;;;;;4.32;0.70;;;8.70;99.90;;;;;;5091805;28;20431;-51
2022/04/08 08:47:18;;;;;;;6.50;0.90;;;8.60;99.90;;;;;;5074646;28;20396;-51
2022/04/08 08:49:50;;;;;;;5.07;0.80;;;8.50;99.90;;;;;;5071418;28;20482;-51
2022/04/08 08:52:18;;;;;;;5.80;0.90;;;8.40;99.90;;;;;;5072200;28;20403;-51
2022/04/08 08:54:45;;;;;;;4.63;0.73;;;8.30;99.90;;;;;;5071380;28;20387;-52
2022/04/08 08:57:13;;;;;;;4.68;0.90;;;8.40;99.90;;;;;;5085534;28;20390;-51
2022/04/08 08:59:39;;;;;;;4.60;0.90;;;8.50;99.90;;;;;;5091468;28;20473;-51
2022/04/08 09:02:05;;;;;;;4.80;0.90;;;8.50;99.90;;;;;;5089213;28;20496;-51
2022/04/08 09:04:31;;;;;;;6.00;1.17;;;8.60;99.90;;;;;;5091254;28;20427;-51
2022/04/08 09:06:57;;;;;;;4.25;1.10;;;9.10;99.90;;;;;;5077954;28;20396;-52
2022/04/08 09:09:32;;;;;;;5.90;1.50;;;8.70;99.90;;;;;;5071035;28;20396;-51
2022/04/08 09:12:19;;;;;;;4.00;0.80;;;8.70;99.90;;;;;;5071281;28;20380;-51
2022/04/08 09:14:52;;;;;;;5.10;0.80;;;8.80;99.90;;;;;;5086934;28;20386;-52
2022/04/08 09:17:19;;;;;;;4.40;1.00;;;8.80;99.90;;;;;;5090721;28;20378;-51
2022/04/08 09:19:50;;;;;;;5.22;0.98;;;9.00;99.90;;;;;;5069074;28;20394;-51
2022/04/08 09:22:16;;;;;;;4.55;0.82;;;9.00;99.90;;;;;;5081811;28;20942;-52
2022/04/08 09:24:42;;;;;;;5.20;0.80;;;9.00;99.90;;;;;;5091055;28;20836;-52
2022/04/08 09:27:07;;;;;;;4.07;0.80;;;9.10;99.90;;;;;;5090639;28;20428;-51
2022/04/08 09:29:34;;;;;;;4.10;0.80;;;9.10;99.90;;;;;;5072269;28;20443;-52
2022/04/08 09:31:59;;;;;;;5.10;0.90;;;8.80;99.90;;;;;;5090633;28;20378;-51
2022/04/08 09:34:25;;;;;;;4.93;0.80;;;8.70;99.90;;;;;;5085207;28;20915;-52
2022/04/08 09:36:51;;;;;;;4.95;1.00;;;8.90;99.90;;;;;;5070382;28;20467;-52
2022/04/08 09:39:17;;;;;;;3.70;0.70;;;8.80;99.90;;;;;;5087290;28;20397;-52
2022/04/08 09:41:44;;;;;;;5.05;0.85;;;8.70;99.90;;;;;;5090903;28;20409;-51
2022/04/08 09:44:11;;;;;;;5.97;0.98;;;8.80;99.90;;;;;;5083665;28;20875;-52
2022/04/08 09:46:38;;;;;;;3.80;0.70;;;8.80;99.90;;;;;;5076807;28;20457;-52
2022/04/08 09:49:07;;;;;;;4.72;0.70;;;8.90;99.90;;;;;;5073824;28;20619;-52
2022/04/08 09:51:37;;;;;;;5.30;0.70;;;8.70;99.90;;;;;;5071732;28;20401;-52
2022/04/08 09:54:06;;;;;;;4.72;0.80;;;8.70;99.90;;;;;;5071110;28;20479;-52
2022/04/08 09:56:34;;;;;;;4.07;0.80;;;8.80;99.90;;;;;;5069822;28;20474;-52
2022/04/08 09:59:14;;;;;;;4.70;0.85;;;9.00;99.90;;;;;;5089091;28;20390;-52
2022/04/08 10:01:44;;;;;;;5.65;0.70;;;8.90;99.90;;;;;;5080983;28;20503;-52
2022/04/08 10:04:11;;;;;;;4.53;0.80;;;8.90;99.90;;;;;;5069479;28;20380;-52
2022/04/08 10:06:38;;;;;;;4.70;0.70;;;9.00;99.90;;;;;;5077826;28;20389;-52
2022/04/08 10:09:06;;;;;;;5.45;0.80;;;9.00;99.90;;;;;;5080517;28;20437;-52
2022/04/08 10:11:45;;;;;;;5.00;0.60;;;8.80;99.90;;;;;;5073539;28;20426;-52
2022/04/08 10:14:21;;;;;;;4.30;0.70;;;8.60;99.90;;;;;;5080764;28;20462;-52
2022/04/08 10:16:52;;;;;;;5.40;0.60;;;8.70;99.90;;;;;;5087039;28;20840;-52
2022/04/08 10:19:18;;;;;;;4.50;0.80;;;8.80;99.90;;;;;;5084779;28;20393;-52
2022/04/08 10:21:51;;;;;;;3.67;0.60;;;8.90;99.90;;;;;;5079586;28;20422;-52
2022/04/08 10:24:25;;;;;;;4.03;0.85;;;8.70;99.90;;;;;;5085980;28;20490;-52
2022/04/08 10:27:08;;;;;;;4.03;0.80;;;8.60;99.90;;;;;;5086517;28;20425;-52
2022/04/08 10:29:35;;;;;;;6.07;0.80;;;8.40;99.90;;;;;;5083456;28;20403;-52
2022/04/08 10:32:12;;;;;;;5.33;0.90;;;8.50;99.90;;;;;;5074305;28;20407;-52
2022/04/08 10:34:38;;;;;;;4.00;0.82;;;8.60;99.90;;;;;;5069753;28;20434;-52
2022/04/08 10:37:17;;;;;;;4.30;0.70;;;8.80;99.90;;;;;;5082302;28;20390;-52
2022/04/08 10:40:02;;;;;;;4.78;0.90;;;8.80;99.90;;;;;;5088292;28;20386;-52
2022/04/08 10:42:29;;;;;;;5.10;0.90;;;8.90;99.90;;;;;;5086304;28;20407;-51
2022/04/08 10:44:55;;;;;;;5.80;0.70;;;7.80;99.90;;;;;;5085047;28;20394;-52
2022/04/08 10:47:23;;;;;;;5.93;0.90;;;9.10;99.90;;;;;;5088068;28;20381;-53
2022/04/08 10:49:50;;;;;;;3.83;0.65;;;9.20;99.90;;;;;;5083382;28;20410;-52
2022/04/08 10:52:18;;;;;;;4.43;1.00;;;9.30;99.90;;;;;;5088453;28;20404;-52
2022/04/08 10:54:44;;;;;;;4.68;1.05;;;9.30;99.90;;;;;;5083052;28;20481;-52
2022/04/08 10:57:10;;;;;;;4.90;1.10;;;9.40;99.90;;;;;;5073395;28;20918;-52
2022/04/08 10:59:36;;;;;;;4.68;0.80;;;9.70;99.90;;;;;;5083246;28;20426;-52
2022/04/08 11:02:05;;;;;;;5.70;1.27;;;9.70;99.90;;;;;;5088565;28;20888;-52
2022/04/08 11:04:32;;;;;;;5.15;1.70;;;9.70;99.90;;;;;;5087325;28;20485;-53
2022/04/08 11:07:06;;;;;;;7.03;2.28;;;9.50;99.90;;;;;;5071823;28;20880;-52
2022/04/08 11:09:33;;;;;;;6.68;1.95;;;9.40;99.90;;;;;;5084761;28;20383;-51
2022/04/08 11:11:59;;;;;;;6.55;1.80;;;9.30;99.90;;;;;;5090634;28;20891;-53
2022/04/08 11:14:29;;;;;;;6.00;1.77;;;9.30;99.90;;;;;;5089106;28;20407;-52
2022/04/08 11:16:55;;;;;;;5.50;1.23;;;9.30;99.90;;;;;;5089164;28;20406;-52
2022/04/08 11:19:22;;;;;;;4.18;0.80;;;9.20;99.90;;;;;;5087111;28;20397;-52
2022/04/08 11:21:48;;;;;;;4.40;1.00;;;9.10;99.90;;;;;;5084298;28;20457;-52
2022/04/08 11:24:19;;;;;;;4.28;0.75;;;9.10;99.90;;;;;;5095034;28;20398;-52
2022/04/08 11:26:51;;;;;;;5.75;1.55;;;9.20;99.90;;;;;;5057992;28;20772;-51
2022/04/08 11:29:27;;;;;;;5.03;1.17;;;9.20;99.90;;;;;;5078599;28;20388;-51
2022/04/08 11:32:09;;;;;;;5.97;1.88;;;9.40;99.90;;;;;;5080657;28;20392;-52
2022/04/08 11:34:35;;;;;;;4.97;1.10;;;9.40;99.90;;;;;;5087717;28;20967;-52
2022/04/08 11:37:01;;;;;;;4.80;0.98;;;9.20;99.90;;;;;;5092948;28;20389;-52
2022/04/08 11:39:27;;;;;;;5.30;1.20;;;9.10;99.90;;;;;;5077077;28;21155;-52
2022/04/08 11:41:57;;;;;;;7.50;2.50;;;9.30;99.90;;;;;;5073157;28;20944;-53
2022/04/08 11:44:24;;;;;;;5.90;1.60;;;9.30;99.90;;;;;;5081913;28;20370;-52
2022/04/08 11:46:50;;;;;;;6.00;1.92;;;9.20;99.90;;;;;;5092680;28;20386;-52
2022/04/08 11:49:18;;;;;;;5.70;1.10;;;9.20;99.90;;;;;;5089497;28;20925;-52
2022/04/08 11:51:45;;;;;;;4.70;1.08;;;9.30;99.90;;;;;;5093094;28;20428;-52
2022/04/08 11:54:11;;;;;;;5.57;1.52;;;9.30;99.90;;;;;;5080716;28;20388;-52
2022/04/08 11:56:37;;;;;;;6.97;1.98;;;9.10;99.90;;;;;;5092369;28;20859;-53
2022/04/08 11:59:11;;;;;;;7.60;1.90;;;9.10;99.90;;;;;;5092524;28;20394;-54
2022/04/08 12:01:41;;;;;;;6.00;1.80;;;9.00;99.90;;;;;;5071140;28;20762;-52
2022/04/08 12:04:11;;;;;;;6.10;1.30;;;8.90;99.90;;;;;;5089853;28;20986;-52
2022/04/08 12:06:42;;;;;;;8.68;2.72;;;8.70;99.90;;;;;;5079623;28;20401;-52
2022/04/08 12:09:12;;;;;;;6.67;2.00;;;8.60;99.90;;;;;;5094706;28;20386;-52
2022/04/08 12:11:42;;;;;;;5.50;1.70;;;8.50;99.90;;;;;;5087365;28;20392;-52
2022/04/08 12:14:10;;;;;;;4.97;1.63;;;8.70;99.90;;;;;;5062336;28;20395;-52
2022/04/08 12:16:39;;;;;;;6.57;1.70;;;8.70;99.90;;;;;;5097596;28;20425;-52
2022/04/08 12:19:08;;;;;;;6.90;1.80;;;8.80;99.90;;;;;;5077766;28;20398;-52
2022/04/08 12:21:35;;;;;;;6.95;2.30;;;8.80;99.90;;;;;;5099301;28;20425;-52
2022/04/08 12:24:04;;;;;;;8.00;3.17;;;8.80;99.90;;;;;;5093799;28;20402;-52
2022/04/08 12:26:32;;;;;;;5.90;2.30;;;8.70;99.90;;;;;;5090587;28;20397;-52
2022/04/08 12:29:13;;;;;;;6.90;2.50;;;8.60;99.90;;;;;;5084132;28;20403;-52
2022/04/08 12:31:47;;;;;;;6.20;2.40;;;8.70;99.90;;;;;;5087183;28;20409;-52
2022/04/08 12:34:17;;;;;;;6.10;2.10;;;8.60;99.90;;;;;;5093667;28;20386;-52
2022/04/08 12:36:47;;;;;;;5.90;2.30;;;8.60;99.90;;;;;;5092561;28;20434;-52
2022/04/08 12:39:12;;;;;;;6.38;2.10;;;8.30;99.90;;;;;;5079125;28;20429;-52
2022/04/08 12:41:40;;;;;;;5.90;2.20;;;8.30;99.90;;;;;;5070735;28;20805;-52
2022/04/08 12:44:07;;;;;;;5.50;1.63;;;8.20;99.90;;;;;;5090252;28;20386;-52
2022/04/08 12:46:32;;;;;;;6.72;2.70;;;8.10;99.90;;;;;;5086768;28;20364;-52
2022/04/08 12:48:58;;;;;;;6.10;2.60;;;8.10;99.90;;;;;;5090421;28;20404;-52
2022/04/08 12:51:23;;;;;;;5.73;2.43;;;8.10;99.90;;;;;;5083501;28;20407;-52
2022/04/08 12:53:49;;;;;;;5.87;2.17;;;8.20;99.90;;;;;;5087160;28;20411;-52
2022/04/08 12:56:15;;;;;;;6.83;2.90;;;8.20;99.90;;;;;;5090564;28;20493;-52